createdAt,value
2022-12-15T00:00:24.137Z,2.14
2022-12-15T00:03:09.584Z,1.87
2022-12-15T00:05:55.215Z,2.15
2022-12-15T00:08:40.485Z,2.31
2022-12-15T00:11:27.121Z,2.33
2022-12-15T00:14:15.600Z,2.31
2022-12-15T00:17:01.186Z,2.15
2022-12-15T00:19:47.079Z,2.43
2022-12-15T00:22:32.838Z,1.85
2022-12-15T00:25:18.194Z,2.01
2022-12-15T00:28:04.416Z,1.86
2022-12-15T00:30:55.067Z,2.29
2022-12-15T00:33:43.049Z,2.34
2022-12-15T00:36:28.326Z,2.15
2022-12-15T00:39:00.464Z,1.43
2022-12-15T00:41:30.624Z,1.50
2022-12-15T00:43:57.777Z,1.79
2022-12-15T00:46:43.682Z,1.74
2022-12-15T00:49:30.922Z,1.55
2022-12-15T00:52:16.744Z,1.96
2022-12-15T00:55:05.950Z,2.39
2022-12-15T00:57:54.437Z,1.80
2022-12-15T01:00:41.499Z,1.69
2022-12-15T01:03:40.389Z,1.29
2022-12-15T01:06:31.538Z,1.89
2022-12-15T01:09:20.330Z,1.62
2022-12-15T01:12:06.360Z,1.44
2022-12-15T01:14:52.334Z,1.41
2022-12-15T01:17:40.926Z,1.57
2022-12-15T01:20:18.139Z,1.47
2022-12-15T01:22:55.654Z,1.58
2022-12-15T01:25:28.020Z,1.76
2022-12-15T01:27:57.739Z,1.83
2022-12-15T01:30:35.521Z,1.75
2022-12-15T01:33:04.311Z,1.51
2022-12-15T01:35:32.152Z,1.97
2022-12-15T01:37:59.245Z,1.57
2022-12-15T01:40:45.062Z,2.11
2022-12-15T01:43:20.048Z,1.97
2022-12-15T01:45:58.491Z,2.39
2022-12-15T01:48:44.665Z,1.89
2022-12-15T01:51:30.863Z,2.48
2022-12-15T01:54:23.472Z,1.94
2022-12-15T01:56:59.518Z,2.08
2022-12-15T01:59:38.358Z,2.48
2022-12-15T02:02:05.787Z,2.09
2022-12-15T02:04:37.965Z,1.75
2022-12-15T02:07:13.230Z,1.84
2022-12-15T02:09:42.551Z,2.33
2022-12-15T02:12:22.449Z,2.92
2022-12-15T02:15:36.418Z,2.37
2022-12-15T02:18:41.024Z,2.80
2022-12-15T02:21:33.598Z,2.76
2022-12-15T02:24:23.151Z,2.54
2022-12-15T02:27:11.623Z,2.64
2022-12-15T02:30:18.534Z,1.25
2022-12-15T02:33:07.392Z,1.66
2022-12-15T02:35:55.506Z,1.96
2022-12-15T02:38:41.591Z,1.84
2022-12-15T02:41:54.840Z,2.11
2022-12-15T02:44:36.831Z,1.71
2022-12-15T02:47:22.093Z,1.80
2022-12-15T02:50:27.851Z,2.27
2022-12-15T02:53:45.956Z,2.03
2022-12-15T02:56:33.253Z,2.19
2022-12-15T02:59:11.308Z,2.28
2022-12-15T03:01:56.559Z,2.08
2022-12-15T03:04:27.748Z,2.05
2022-12-15T03:07:08.058Z,1.68
2022-12-15T03:09:37.642Z,1.73
2022-12-15T03:12:07.435Z,2.11
2022-12-15T03:14:36.881Z,1.60
2022-12-15T03:17:08.507Z,1.99
2022-12-15T03:19:35.862Z,2.01
2022-12-15T03:22:02.946Z,1.93
2022-12-15T03:24:31.712Z,1.89
2022-12-15T03:26:59.880Z,1.73
2022-12-15T03:29:27.234Z,2.16
2022-12-15T03:31:55.495Z,2.31
2022-12-15T03:34:26.420Z,2.24
2022-12-15T03:36:53.623Z,2.15
2022-12-15T03:39:20.938Z,2.10
2022-12-15T03:41:47.940Z,2.62
2022-12-15T03:44:15.163Z,1.86
2022-12-15T03:46:42.109Z,1.80
2022-12-15T03:49:09.290Z,1.64
2022-12-15T03:51:36.226Z,1.87
2022-12-15T03:54:03.365Z,1.76
2022-12-15T03:56:30.295Z,1.65
2022-12-15T03:58:59.922Z,1.83
2022-12-15T04:01:35.040Z,2.00
2022-12-15T04:04:05.645Z,1.68
2022-12-15T04:06:34.776Z,1.63
2022-12-15T04:09:01.882Z,1.62
2022-12-15T04:11:29.376Z,1.73
2022-12-15T04:13:56.729Z,2.38
2022-12-15T04:16:29.209Z,1.89
2022-12-15T04:19:14.936Z,2.20
2022-12-15T04:21:44.766Z,2.43
2022-12-15T04:24:33.325Z,2.18
2022-12-15T04:27:18.630Z,1.90
2022-12-15T04:30:09.588Z,2.30
2022-12-15T04:32:56.864Z,1.51
2022-12-15T04:35:45.236Z,2.10
2022-12-15T04:38:35.681Z,2.65
2022-12-15T04:41:21.892Z,2.41
2022-12-15T04:44:07.817Z,2.30
2022-12-15T04:46:53.648Z,1.64
2022-12-15T04:49:39.453Z,2.19
2022-12-15T04:52:24.604Z,2.34
2022-12-15T04:55:12.326Z,1.62
2022-12-15T04:58:01.409Z,1.39
2022-12-15T05:00:46.865Z,2.36
2022-12-15T05:03:33.137Z,1.51
2022-12-15T05:06:18.845Z,1.77
2022-12-15T05:09:04.595Z,1.77
2022-12-15T05:11:51.477Z,1.43
2022-12-15T05:14:40.623Z,2.00
2022-12-15T05:17:29.631Z,1.68
2022-12-15T05:20:15.437Z,1.53
2022-12-15T05:23:12.908Z,1.83
2022-12-15T05:25:59.045Z,1.52
2022-12-15T05:28:46.975Z,1.61
2022-12-15T05:31:33.173Z,1.96
2022-12-15T05:34:05.061Z,1.40
2022-12-15T05:36:33.666Z,1.80
2022-12-15T05:39:00.724Z,1.79
2022-12-15T05:41:31.841Z,1.80
2022-12-15T05:43:59.018Z,1.56
2022-12-15T05:46:26.047Z,1.80
2022-12-15T05:48:55.505Z,1.45
2022-12-15T05:51:22.685Z,1.65
2022-12-15T05:53:52.037Z,1.37
2022-12-15T05:56:19.264Z,2.05
2022-12-15T05:58:46.251Z,2.16
2022-12-15T06:01:17.012Z,1.66
2022-12-15T06:03:44.481Z,1.82
2022-12-15T06:06:14.737Z,2.26
2022-12-15T06:08:44.612Z,1.50
2022-12-15T06:11:20.204Z,1.83
2022-12-15T06:13:54.547Z,1.77
2022-12-15T06:16:26.265Z,1.75
2022-12-15T06:18:59.833Z,2.06
2022-12-15T06:21:31.471Z,1.56
2022-12-15T06:24:02.241Z,1.65
2022-12-15T06:26:35.909Z,1.08
2022-12-15T06:29:11.091Z,1.95
2022-12-15T06:31:39.543Z,1.69
2022-12-15T06:34:13.066Z,1.33
2022-12-15T06:36:45.349Z,1.67
2022-12-15T06:39:15.625Z,1.74
2022-12-15T06:41:43.758Z,2.06
2022-12-15T06:44:17.678Z,2.13
2022-12-15T06:46:46.022Z,1.97
2022-12-15T06:49:13.982Z,1.88
2022-12-15T06:51:41.822Z,1.49
2022-12-15T06:54:11.322Z,1.80
2022-12-15T06:56:44.204Z,1.85
2022-12-15T06:59:12.828Z,1.93
2022-12-15T07:01:41.514Z,1.76
2022-12-15T07:04:12.738Z,2.06
2022-12-15T07:06:40.542Z,1.65
2022-12-15T07:09:13.266Z,2.08
2022-12-15T07:11:40.575Z,2.13
2022-12-15T07:14:08.683Z,2.34
2022-12-15T07:16:38.599Z,2.42
2022-12-15T07:19:05.828Z,1.88
2022-12-15T07:21:35.300Z,1.90
2022-12-15T07:24:04.667Z,1.97
2022-12-15T07:26:36.335Z,1.97
2022-12-15T07:29:03.638Z,1.72
2022-12-15T07:31:31.234Z,1.73
2022-12-15T07:34:04.733Z,1.20
2022-12-15T07:36:31.988Z,1.16
2022-12-15T07:39:01.311Z,1.50
2022-12-15T07:41:38.491Z,1.60
2022-12-15T07:44:08.043Z,1.75
2022-12-15T07:46:46.756Z,1.83
2022-12-15T07:49:15.096Z,1.62
2022-12-15T07:51:42.083Z,1.12
2022-12-15T07:54:11.647Z,1.40
2022-12-15T07:56:39.996Z,1.52
2022-12-15T07:59:10.156Z,1.74
2022-12-15T08:01:37.264Z,0.58
2022-12-15T08:04:06.981Z,1.61
2022-12-15T08:06:34.508Z,1.29
2022-12-15T08:09:04.088Z,1.68
2022-12-15T08:11:35.344Z,1.45
2022-12-15T08:14:04.977Z,1.83
2022-12-15T08:16:34.651Z,1.47
2022-12-15T08:19:03.755Z,2.02
2022-12-15T08:21:33.846Z,2.12
2022-12-15T08:24:01.218Z,1.79
2022-12-15T08:26:33.528Z,1.29
2022-12-15T08:31:53.335Z,0.92
2022-12-15T08:34:21.022Z,1.03
2022-12-15T08:36:49.246Z,0.98
2022-12-15T08:39:16.598Z,1.34
2022-12-15T08:41:43.654Z,1.69
2022-12-15T08:44:10.811Z,1.47
2022-12-15T08:46:37.885Z,1.15
2022-12-15T08:49:05.302Z,1.17
2022-12-15T08:51:33.726Z,1.77
2022-12-15T08:54:03.468Z,1.35
2022-12-15T08:56:30.599Z,1.26
2022-12-15T08:59:01.919Z,1.35
2022-12-15T09:01:32.199Z,2.09
2022-12-15T09:04:01.659Z,1.29
2022-12-15T09:06:32.251Z,1.18
2022-12-15T09:09:07.676Z,1.13
2022-12-15T09:11:36.888Z,1.34
2022-12-15T09:14:04.600Z,0.91
2022-12-15T09:16:33.962Z,1.15
2022-12-15T09:19:03.755Z,1.54
2022-12-15T09:21:32.002Z,1.53
2022-12-15T09:24:01.950Z,1.51
2022-12-15T09:26:37.835Z,1.98
2022-12-15T09:29:07.921Z,1.14
2022-12-15T09:31:38.426Z,1.28
2022-12-15T09:34:13.457Z,1.71
2022-12-15T09:36:40.863Z,1.98
2022-12-15T09:39:13.646Z,1.43
2022-12-15T09:41:41.674Z,1.80
2022-12-15T09:44:21.304Z,1.77
2022-12-15T09:47:16.891Z,1.76
2022-12-15T09:50:03.321Z,1.32
2022-12-15T09:52:53.108Z,2.11
2022-12-15T09:55:32.815Z,1.79
2022-12-15T09:58:25.047Z,1.34
2022-12-15T10:01:09.598Z,1.21
2022-12-15T10:04:01.510Z,1.26
2022-12-15T10:06:50.681Z,1.59
2022-12-15T10:09:32.764Z,1.30
2022-12-15T10:12:27.956Z,0.95
2022-12-15T10:15:09.344Z,1.18
2022-12-15T10:18:15.971Z,1.45
2022-12-15T10:20:43.233Z,1.55
2022-12-15T10:23:14.667Z,1.07
2022-12-15T10:25:59.195Z,1.24
2022-12-15T10:29:09.397Z,1.01
2022-12-15T10:31:51.486Z,0.92
2022-12-15T10:34:35.000Z,1.21
2022-12-15T10:37:03.228Z,1.06
2022-12-15T10:39:43.548Z,1.52
2022-12-15T10:42:24.572Z,1.19
2022-12-15T10:44:58.199Z,0.94
2022-12-15T10:47:38.383Z,1.08
2022-12-15T10:50:26.142Z,0.86
2022-12-15T10:52:53.170Z,1.03
2022-12-15T10:55:43.825Z,1.04
2022-12-15T10:58:25.217Z,0.91
2022-12-15T11:01:20.794Z,1.43
2022-12-15T11:03:54.810Z,1.50
2022-12-15T11:06:26.528Z,1.75
2022-12-15T11:09:07.601Z,1.67
2022-12-15T11:12:04.028Z,1.54
2022-12-15T11:14:52.122Z,1.57
2022-12-15T11:17:22.716Z,2.23
2022-12-15T11:22:55.173Z,0.68
2022-12-15T11:25:44.262Z,2.07
2022-12-15T11:28:26.685Z,2.15
2022-12-15T11:31:07.876Z,1.28
2022-12-15T11:33:35.530Z,1.79
2022-12-15T11:36:28.564Z,1.22
2022-12-15T11:39:49.258Z,1.73
2022-12-15T11:42:44.219Z,1.27
2022-12-15T11:45:27.046Z,2.12
2022-12-15T11:48:14.295Z,1.47
2022-12-15T11:51:16.131Z,1.73
2022-12-15T11:54:04.919Z,0.90
2022-12-15T11:56:41.662Z,1.10
2022-12-15T11:59:51.595Z,1.24
2022-12-15T12:02:45.696Z,0.86
2022-12-15T12:05:43.190Z,1.24
2022-12-15T12:08:38.526Z,1.07
2022-12-15T12:11:19.561Z,1.07
2022-12-15T12:14:08.098Z,1.57
2022-12-15T12:17:10.957Z,0.97
2022-12-15T12:19:52.408Z,1.05
2022-12-15T12:22:35.456Z,0.95
2022-12-15T12:25:22.502Z,0.87
2022-12-15T12:28:05.478Z,1.27
2022-12-15T12:30:42.640Z,1.03
2022-12-15T12:33:14.197Z,0.91
2022-12-15T12:36:10.717Z,0.96
2022-12-15T12:38:56.112Z,0.87
2022-12-15T12:41:53.148Z,0.45
2022-12-15T12:44:36.028Z,1.16
2022-12-15T12:47:51.410Z,1.24
2022-12-15T12:50:29.776Z,0.86
2022-12-15T12:52:59.267Z,1.18
2022-12-15T12:55:38.687Z,0.87
2022-12-15T12:58:41.502Z,0.90
2022-12-15T13:01:13.059Z,0.72
2022-12-15T13:03:42.635Z,1.27
2022-12-15T13:06:42.018Z,0.88
2022-12-15T13:09:23.968Z,1.32
2022-12-15T13:12:15.077Z,1.52
2022-12-15T13:14:55.007Z,1.33
2022-12-15T13:17:29.807Z,1.56
2022-12-15T13:19:56.811Z,1.16
2022-12-15T13:22:36.370Z,0.80
2022-12-15T13:25:37.383Z,0.88
2022-12-15T13:28:39.846Z,1.07
2022-12-15T13:31:22.419Z,1.38
2022-12-15T13:33:57.254Z,1.01
2022-12-15T13:36:46.147Z,0.85
2022-12-15T13:39:17.658Z,0.39
2022-12-15T13:47:31.344Z,1.70
2022-12-15T13:50:20.423Z,1.55
2022-12-15T13:56:06.546Z,1.01
2022-12-15T13:58:49.015Z,0.72
2022-12-15T14:01:33.895Z,1.43
2022-12-15T14:04:15.925Z,0.90
2022-12-15T14:06:57.328Z,1.07
2022-12-15T14:09:36.776Z,0.81
2022-12-15T14:12:12.293Z,1.07
2022-12-15T14:14:49.447Z,1.48
2022-12-15T14:17:22.809Z,0.98
2022-12-15T14:19:52.643Z,0.67
2022-12-15T14:22:29.984Z,1.04
2022-12-15T14:25:24.900Z,1.21
2022-12-15T14:27:53.118Z,1.39
2022-12-15T14:30:35.186Z,0.92
2022-12-15T14:33:13.305Z,0.42
2022-12-15T14:35:51.541Z,0.92
2022-12-15T14:38:41.420Z,1.18
2022-12-15T14:41:20.700Z,0.95
2022-12-15T14:44:36.560Z,1.61
2022-12-15T14:46:39.833Z,1.28
2022-12-15T14:49:08.987Z,1.48
2022-12-15T14:51:46.769Z,1.35
2022-12-15T14:54:40.716Z,1.57
2022-12-15T14:57:16.561Z,1.08
2022-12-15T14:59:52.949Z,0.98
2022-12-15T15:02:34.027Z,0.92
2022-12-15T15:03:06.890Z,1.08
2022-12-15T15:05:14.425Z,1.11
2022-12-15T15:07:42.157Z,1.49
2022-12-15T15:10:27.871Z,1.73
2022-12-15T15:12:55.234Z,1.00
2022-12-15T15:15:26.456Z,1.03
2022-12-15T15:17:57.408Z,1.21
2022-12-15T15:20:35.946Z,0.76
2022-12-15T15:23:11.086Z,0.34
2022-12-15T15:25:42.573Z,0.76
2022-12-15T15:28:20.198Z,0.83
2022-12-15T15:31:05.462Z,0.89
2022-12-15T15:33:38.021Z,1.15
2022-12-15T15:36:11.375Z,1.15
2022-12-15T15:38:40.080Z,0.44
2022-12-15T15:41:31.721Z,1.09
2022-12-15T15:44:01.701Z,0.43
2022-12-15T15:46:36.260Z,0.35
2022-12-15T15:49:08.638Z,0.86
2022-12-15T15:51:39.775Z,1.25
2022-12-15T15:54:15.118Z,0.88
2022-12-15T15:56:42.143Z,1.45
2022-12-15T15:59:17.983Z,1.07
2022-12-15T16:01:51.980Z,1.10
2022-12-15T16:04:19.007Z,1.70
2022-12-15T16:06:47.903Z,0.89
2022-12-15T16:09:15.936Z,0.60
2022-12-15T16:11:44.823Z,0.69
2022-12-15T16:14:17.351Z,0.69
2022-12-15T16:16:45.711Z,0.93
2022-12-15T16:19:12.810Z,0.96
2022-12-15T16:21:41.256Z,0.53
2022-12-15T16:24:28.469Z,0.82
2022-12-15T16:29:44.680Z,0.43
2022-12-15T16:32:15.696Z,0.55
2022-12-15T16:34:45.861Z,0.81
2022-12-15T16:37:27.250Z,0.28
2022-12-15T16:39:54.519Z,0.11
2022-12-15T16:42:21.472Z,0.67
2022-12-15T16:44:49.622Z,0.76
2022-12-15T16:47:19.201Z,0.44
2022-12-15T16:49:46.164Z,0.94
2022-12-15T16:52:22.484Z,0.59
2022-12-15T16:54:50.338Z,0.81
2022-12-15T16:57:25.293Z,0.74
2022-12-15T16:59:52.327Z,0.89
2022-12-15T17:02:29.554Z,1.46
2022-12-15T17:05:04.636Z,1.08
2022-12-15T17:07:32.393Z,1.16
2022-12-15T17:12:46.256Z,1.20
2022-12-15T17:15:28.647Z,0.75
2022-12-15T17:17:58.576Z,0.73
2022-12-15T17:20:31.184Z,1.07
2022-12-15T17:23:16.008Z,0.97
2022-12-15T17:26:19.973Z,1.64
2022-12-15T17:28:39.236Z,1.58
2022-12-15T17:31:16.508Z,1.49
2022-12-15T17:33:46.054Z,1.65
2022-12-15T17:36:23.041Z,1.91
2022-12-15T17:38:55.952Z,1.82
2022-12-15T17:41:57.552Z,1.32
2022-12-15T17:44:37.417Z,1.07
2022-12-15T17:47:09.112Z,1.15
2022-12-15T17:49:39.361Z,1.43
2022-12-15T17:52:34.334Z,1.26
2022-12-15T17:55:16.130Z,0.93
2022-12-15T17:57:46.236Z,0.90
2022-12-15T18:00:45.845Z,0.83
2022-12-15T18:03:16.726Z,0.46
2022-12-15T18:08:36.845Z,1.47
2022-12-15T18:11:10.313Z,0.83
2022-12-15T18:13:59.337Z,0.57
2022-12-15T18:19:23.677Z,0.70
2022-12-15T18:21:53.504Z,0.72
2022-12-15T18:24:21.607Z,0.74
2022-12-15T18:26:48.967Z,0.31
2022-12-15T18:29:18.118Z,1.13
2022-12-15T18:34:35.439Z,0.48
2022-12-15T18:37:03.495Z,1.14
2022-12-15T18:39:50.737Z,0.76
2022-12-15T18:42:21.712Z,0.77
2022-12-15T18:47:39.690Z,1.15
2022-12-15T18:50:13.394Z,0.85
2022-12-15T18:52:40.923Z,1.17
2022-12-15T18:55:21.515Z,0.27
2022-12-15T18:57:52.999Z,1.18
2022-12-15T19:00:27.695Z,1.20
2022-12-15T19:03:04.175Z,1.01
2022-12-15T19:05:33.917Z,1.28
2022-12-15T19:08:29.605Z,1.16
2022-12-15T19:11:10.367Z,1.46
2022-12-15T19:13:40.112Z,1.58
2022-12-15T19:16:18.122Z,0.64
2022-12-15T19:19:04.408Z,0.59
2022-12-15T19:21:54.791Z,0.43
2022-12-15T19:24:52.424Z,0.90
2022-12-15T19:27:23.383Z,1.43
2022-12-15T19:29:51.041Z,0.71
2022-12-15T19:32:18.112Z,1.00
2022-12-15T19:34:48.139Z,0.39
2022-12-15T19:37:29.595Z,0.57
2022-12-15T19:39:59.259Z,0.53
2022-12-15T19:42:36.785Z,-0.15
2022-12-15T19:45:23.344Z,0.04
2022-12-15T19:47:50.636Z,0.66
2022-12-15T19:50:23.678Z,0.68
2022-12-15T19:52:57.785Z,0.60
2022-12-15T19:55:38.100Z,0.33
2022-12-15T19:58:28.945Z,0.39
2022-12-15T20:01:12.158Z,0.08
2022-12-15T20:03:39.897Z,0.15
2022-12-15T20:06:20.406Z,0.14
2022-12-15T20:08:59.233Z,0.84
2022-12-15T20:11:32.764Z,0.86
2022-12-15T20:14:05.889Z,0.50
2022-12-15T20:16:34.959Z,0.62
2022-12-15T20:19:04.664Z,0.70
2022-12-15T20:21:35.828Z,0.50
2022-12-15T20:24:12.899Z,0.60
2022-12-15T20:26:41.312Z,0.34
2022-12-15T20:29:28.294Z,0.72
2022-12-15T20:32:00.038Z,1.04
2022-12-15T20:34:29.543Z,0.29
2022-12-15T20:36:59.597Z,-0.06
2022-12-15T20:39:30.826Z,0.04
2022-12-15T20:42:00.164Z,0.08
2022-12-15T20:44:27.150Z,0.23
2022-12-15T20:46:58.952Z,0.77
2022-12-15T20:49:28.304Z,0.62
2022-12-15T20:51:55.257Z,0.63
2022-12-15T20:54:28.983Z,0.40
2022-12-15T20:56:57.825Z,0.35
2022-12-15T20:59:24.760Z,0.55
2022-12-15T21:01:52.475Z,0.84
2022-12-15T21:04:29.683Z,0.45
2022-12-15T21:06:57.288Z,0.09
2022-12-15T21:09:29.531Z,0.32
2022-12-15T21:12:03.107Z,0.26
2022-12-15T21:14:35.608Z,0.02
2022-12-15T21:17:06.925Z,0.19
2022-12-15T21:19:34.283Z,0.04
2022-12-15T21:22:01.506Z,-0.10
2022-12-15T21:24:30.070Z,-0.02
2022-12-15T21:26:57.068Z,0.55
2022-12-15T21:29:27.850Z,0.31
2022-12-15T21:31:54.790Z,0.33
2022-12-15T21:34:22.670Z,0.40
2022-12-15T21:36:55.611Z,0.18
2022-12-15T21:39:39.825Z,0.26
2022-12-15T21:42:12.632Z,0.16
2022-12-15T21:44:40.053Z,0.70
2022-12-15T21:47:48.808Z,0.18
2022-12-15T21:50:17.863Z,-0.08
2022-12-15T21:52:48.347Z,0.43
2022-12-15T21:55:21.270Z,1.04
2022-12-15T21:57:48.530Z,1.05
2022-12-15T22:00:18.602Z,0.63
2022-12-15T22:02:48.077Z,0.96
2022-12-15T22:05:25.473Z,1.03
2022-12-15T22:07:57.280Z,1.24
2022-12-15T22:10:25.270Z,1.26
2022-12-15T22:12:59.795Z,0.88
2022-12-15T22:15:28.804Z,0.58
2022-12-15T22:17:56.149Z,0.32
2022-12-15T22:20:29.662Z,0.40
2022-12-15T22:22:58.919Z,0.19
2022-12-15T22:25:26.009Z,0.16
2022-12-15T22:27:56.446Z,0.32
2022-12-15T22:30:26.136Z,0.39
2022-12-15T22:32:57.629Z,0.31
2022-12-15T22:35:26.527Z,0.65
2022-12-15T22:37:53.966Z,0.48
2022-12-15T22:40:26.835Z,0.58
2022-12-15T22:42:57.797Z,0.19
2022-12-15T22:45:25.240Z,0.21
2022-12-15T22:47:57.010Z,0.44
2022-12-15T22:50:27.882Z,0.14
2022-12-15T22:52:55.319Z,0.30
2022-12-15T22:55:26.708Z,0.41
2022-12-15T22:58:01.236Z,0.29
2022-12-15T23:00:30.044Z,0.24
2022-12-15T23:03:01.252Z,0.38
2022-12-15T23:05:28.401Z,0.62
2022-12-15T23:07:55.834Z,0.02
2022-12-15T23:10:57.996Z,0.43
2022-12-15T23:13:30.085Z,0.78
2022-12-15T23:16:16.004Z,0.41
2022-12-15T23:18:48.404Z,-0.03
2022-12-15T23:21:16.472Z,0.58
2022-12-15T23:23:44.563Z,0.65
2022-12-15T23:26:12.824Z,0.78
2022-12-15T23:28:40.261Z,1.07
2022-12-15T23:31:10.473Z,0.92
2022-12-15T23:33:41.817Z,0.20
2022-12-15T23:36:10.163Z,0.86
2022-12-15T23:38:37.402Z,0.69
2022-12-15T23:41:04.752Z,0.29
2022-12-15T23:43:35.983Z,1.06
2022-12-15T23:46:06.683Z,0.19
2022-12-15T23:48:56.919Z,-0.03
2022-12-15T23:51:23.863Z,0.03
2022-12-15T23:53:51.302Z,-0.14
2022-12-15T23:56:25.216Z,-0.35
2022-12-15T23:58:59.844Z,0.52
